createdAt,value
2018-08-16T00:01:00.611Z,6.60
2018-08-16T00:02:03.966Z,6.50
2018-08-16T00:03:07.335Z,6.30
2018-08-16T00:04:10.688Z,6.62
2018-08-16T00:05:14.154Z,6.08
2018-08-16T00:06:17.507Z,6.45
2018-08-16T00:07:20.853Z,6.00
2018-08-16T00:08:24.243Z,6.10
2018-08-16T00:09:27.668Z,5.75
2018-08-16T00:10:31.013Z,6.37
2018-08-16T00:11:34.382Z,6.28
2018-08-16T00:12:37.707Z,6.50
2018-08-16T00:13:41.104Z,6.37
2018-08-16T00:14:44.507Z,6.35
2018-08-16T00:15:47.908Z,5.90
2018-08-16T00:16:51.236Z,6.12
2018-08-16T00:17:54.616Z,5.75
2018-08-16T00:18:57.914Z,6.45
2018-08-16T00:20:01.276Z,6.70
2018-08-16T00:21:04.686Z,6.65
2018-08-16T00:22:08.063Z,6.25
2018-08-16T00:23:11.412Z,6.03
2018-08-16T00:24:14.720Z,5.67
2018-08-16T00:25:18.083Z,6.33
2018-08-16T00:26:21.453Z,5.95
2018-08-16T00:27:24.776Z,7.33
2018-08-16T00:28:28.122Z,6.45
2018-08-16T00:29:31.459Z,6.80
2018-08-16T00:30:34.854Z,5.87
2018-08-16T00:31:38.238Z,6.50
2018-08-16T00:32:41.887Z,7.30
2018-08-16T00:33:45.204Z,6.70
2018-08-16T00:34:48.549Z,6.95
2018-08-16T00:35:51.871Z,5.95
2018-08-16T00:36:55.276Z,6.20
2018-08-16T00:37:58.604Z,6.03
2018-08-16T00:39:01.919Z,7.00
2018-08-16T00:40:08.218Z,6.97
2018-08-16T00:41:11.571Z,7.00
2018-08-16T00:42:14.924Z,6.80
2018-08-16T00:43:18.275Z,6.55
2018-08-16T00:44:21.595Z,6.35
2018-08-16T00:45:24.947Z,6.70
2018-08-16T00:46:28.259Z,6.75
2018-08-16T00:47:32.555Z,6.90
2018-08-16T00:48:35.920Z,6.35
2018-08-16T00:49:39.278Z,7.37
2018-08-16T00:50:42.612Z,7.05
2018-08-16T00:51:45.944Z,7.03
2018-08-16T00:52:49.263Z,6.40
2018-08-16T00:53:52.650Z,7.33
2018-08-16T00:54:55.966Z,6.85
2018-08-16T00:55:59.312Z,7.83
2018-08-16T00:57:02.638Z,6.47
2018-08-16T00:58:06.175Z,7.40
2018-08-16T00:59:09.496Z,7.60
2018-08-16T01:00:15.737Z,7.25
2018-08-16T01:01:19.054Z,7.33
2018-08-16T01:02:22.467Z,7.40
2018-08-16T01:03:25.829Z,7.30
2018-08-16T01:04:29.167Z,7.37
2018-08-16T01:05:32.490Z,7.25
2018-08-16T01:06:35.854Z,7.30
2018-08-16T01:07:39.319Z,6.53
2018-08-16T01:08:42.635Z,7.62
2018-08-16T01:09:45.943Z,7.20
2018-08-16T01:10:49.278Z,7.28
2018-08-16T01:11:52.610Z,6.72
2018-08-16T01:12:55.970Z,7.42
2018-08-16T01:13:59.286Z,7.65
2018-08-16T01:15:02.627Z,6.65
2018-08-16T01:16:06.079Z,7.08
2018-08-16T01:17:09.529Z,7.37
2018-08-16T01:18:12.894Z,7.35
2018-08-16T01:19:16.271Z,6.47
2018-08-16T01:20:19.686Z,7.10
2018-08-16T01:21:23.004Z,7.28
2018-08-16T01:22:26.333Z,7.55
2018-08-16T01:23:36.199Z,6.55
2018-08-16T01:24:39.544Z,6.90
2018-08-16T01:25:42.891Z,7.03
2018-08-16T01:26:46.215Z,6.65
2018-08-16T01:27:49.594Z,7.70
2018-08-16T01:28:52.979Z,6.80
2018-08-16T01:29:56.330Z,7.75
2018-08-16T01:30:59.657Z,7.30
2018-08-16T01:32:03.035Z,7.25
2018-08-16T01:33:06.703Z,7.08
2018-08-16T01:34:10.058Z,7.00
2018-08-16T01:35:13.381Z,7.35
2018-08-16T01:36:16.719Z,7.03
2018-08-16T01:37:20.049Z,8.28
2018-08-16T01:38:23.415Z,7.28
2018-08-16T01:39:26.742Z,7.37
2018-08-16T01:40:30.098Z,6.90
2018-08-16T01:41:33.410Z,7.53
2018-08-16T01:42:37.548Z,7.10
2018-08-16T01:43:40.900Z,7.00
2018-08-16T01:44:44.228Z,7.12
2018-08-16T01:45:47.567Z,7.87
2018-08-16T01:46:50.880Z,7.25
2018-08-16T01:47:54.251Z,7.47
2018-08-16T01:48:57.569Z,7.40
2018-08-16T01:50:00.905Z,7.25
2018-08-16T01:51:04.239Z,7.60
2018-08-16T01:52:07.654Z,7.90
2018-08-16T01:53:11.222Z,7.30
2018-08-16T01:54:14.545Z,8.10
2018-08-16T01:55:17.872Z,8.08
2018-08-16T01:56:21.200Z,7.53
2018-08-16T01:57:24.568Z,7.72
2018-08-16T01:58:27.918Z,7.58
2018-08-16T01:59:31.290Z,7.72
2018-08-16T02:00:34.639Z,8.08
2018-08-16T02:01:38.002Z,7.53
2018-08-16T02:02:41.325Z,7.45
2018-08-16T02:03:44.706Z,8.30
2018-08-16T02:04:48.035Z,7.62
2018-08-16T02:05:51.458Z,7.47
2018-08-16T02:06:54.838Z,7.60
2018-08-16T02:07:58.243Z,7.35
2018-08-16T02:09:01.544Z,8.05
2018-08-16T02:10:05.999Z,9.00
2018-08-16T02:11:09.343Z,8.10
2018-08-16T02:12:12.655Z,7.10
2018-08-16T02:13:16.072Z,7.78
2018-08-16T02:14:19.940Z,7.97
2018-08-16T02:15:23.280Z,7.75
2018-08-16T02:16:26.631Z,8.88
2018-08-16T02:17:30.002Z,8.60
2018-08-16T02:18:33.407Z,8.20
2018-08-16T02:19:36.738Z,7.90
2018-08-16T02:20:40.055Z,8.55
2018-08-16T02:21:43.432Z,7.62
2018-08-16T02:22:46.756Z,7.75
2018-08-16T02:23:50.073Z,8.55
2018-08-16T02:24:53.402Z,8.28
2018-08-16T02:25:56.738Z,9.50
2018-08-16T02:27:00.169Z,9.48
2018-08-16T02:28:03.523Z,9.00
2018-08-16T02:29:06.857Z,9.30
2018-08-16T02:30:10.448Z,9.95
2018-08-16T02:31:13.798Z,9.88
2018-08-16T02:32:17.158Z,9.23
2018-08-16T02:33:20.495Z,9.25
2018-08-16T02:34:23.828Z,10.10
2018-08-16T02:35:27.170Z,10.30
2018-08-16T02:36:30.483Z,10.18
2018-08-16T02:37:34.046Z,9.40
2018-08-16T02:38:37.363Z,9.83
2018-08-16T02:39:40.683Z,9.88
2018-08-16T02:40:44.071Z,10.48
2018-08-16T02:41:47.419Z,11.10
2018-08-16T02:42:50.772Z,9.88
2018-08-16T02:43:54.146Z,10.10
2018-08-16T02:44:57.480Z,9.70
2018-08-16T02:46:00.840Z,11.25
2018-08-16T02:47:04.214Z,10.38
2018-08-16T02:48:07.572Z,10.00
2018-08-16T02:49:10.940Z,10.45
2018-08-16T02:50:14.264Z,10.50
2018-08-16T02:51:17.587Z,10.45
2018-08-16T02:52:20.971Z,10.43
2018-08-16T02:53:24.297Z,10.10
2018-08-16T02:54:27.639Z,9.93
2018-08-16T02:55:30.988Z,9.20
2018-08-16T02:56:34.346Z,10.10
2018-08-16T02:57:37.675Z,9.45
2018-08-16T02:58:40.995Z,9.13
2018-08-16T02:59:44.385Z,9.50
2018-08-16T03:00:47.694Z,9.55
2018-08-16T03:01:51.025Z,9.65
2018-08-16T03:02:54.358Z,10.25
2018-08-16T03:04:04.488Z,10.35
2018-08-16T03:05:07.971Z,9.18
2018-08-16T03:06:11.308Z,9.18
2018-08-16T03:07:14.642Z,9.95
2018-08-16T03:08:17.960Z,9.40
2018-08-16T03:09:21.294Z,10.00
2018-08-16T03:10:24.646Z,9.05
2018-08-16T03:11:27.975Z,9.33
2018-08-16T03:12:38.011Z,10.03
2018-08-16T03:13:41.386Z,9.43
2018-08-16T03:14:44.734Z,10.03
2018-08-16T03:15:48.113Z,9.43
2018-08-16T03:16:51.454Z,9.75
2018-08-16T03:17:54.810Z,9.60
2018-08-16T03:18:58.156Z,9.45
2018-08-16T03:20:01.488Z,9.38
2018-08-16T03:21:04.928Z,9.25
2018-08-16T03:22:08.279Z,9.30
2018-08-16T03:23:11.605Z,9.05
2018-08-16T03:24:14.971Z,9.45
2018-08-16T03:25:18.290Z,10.08
2018-08-16T03:26:21.635Z,9.95
2018-08-16T03:27:24.958Z,8.78
2018-08-16T03:28:28.994Z,9.93
2018-08-16T03:29:32.972Z,9.40
2018-08-16T03:30:36.394Z,9.80
2018-08-16T03:31:39.727Z,8.98
2018-08-16T03:32:43.061Z,9.45
2018-08-16T03:33:46.403Z,10.00
2018-08-16T03:34:49.718Z,9.38
2018-08-16T03:35:53.072Z,9.15
2018-08-16T03:36:56.436Z,9.10
2018-08-16T03:37:59.786Z,9.00
2018-08-16T03:39:03.223Z,9.63
2018-08-16T03:40:07.247Z,9.53
2018-08-16T03:41:10.583Z,9.25
2018-08-16T03:42:13.916Z,11.18
2018-08-16T03:43:17.221Z,9.23
2018-08-16T03:44:20.563Z,10.45
2018-08-16T03:45:23.927Z,10.63
2018-08-16T03:46:27.270Z,10.05
2018-08-16T03:47:30.647Z,10.10
2018-08-16T03:48:33.976Z,9.33
2018-08-16T03:49:37.303Z,9.63
2018-08-16T03:50:40.626Z,9.83
2018-08-16T03:51:43.951Z,9.88
2018-08-16T03:52:47.301Z,9.73
2018-08-16T03:53:50.627Z,8.88
2018-08-16T03:54:53.964Z,9.98
2018-08-16T03:55:57.360Z,10.10
2018-08-16T03:57:00.722Z,9.65
2018-08-16T03:58:04.043Z,10.43
2018-08-16T03:59:07.414Z,10.20
2018-08-16T04:00:10.748Z,10.32
2018-08-16T04:01:14.101Z,9.10
2018-08-16T04:02:17.465Z,10.20
2018-08-16T04:03:20.918Z,8.73
2018-08-16T04:04:24.237Z,9.38
2018-08-16T04:05:27.555Z,8.95
2018-08-16T04:06:30.905Z,9.23
2018-08-16T04:07:34.259Z,10.32
2018-08-16T04:08:37.611Z,9.50
2018-08-16T04:09:40.964Z,10.10
2018-08-16T04:10:44.298Z,9.13
2018-08-16T04:11:47.611Z,9.68
2018-08-16T04:12:51.055Z,9.73
2018-08-16T04:13:54.407Z,9.80
2018-08-16T04:14:57.743Z,9.20
2018-08-16T04:16:01.065Z,9.33
2018-08-16T04:17:04.409Z,9.68
2018-08-16T04:18:07.877Z,9.90
2018-08-16T04:19:11.242Z,10.43
2018-08-16T04:20:14.602Z,9.90
2018-08-16T04:21:17.928Z,9.25
2018-08-16T04:22:21.264Z,9.78
2018-08-16T04:23:24.598Z,9.25
2018-08-16T04:24:27.966Z,9.68
2018-08-16T04:25:31.300Z,9.83
2018-08-16T04:26:34.618Z,8.73
2018-08-16T04:27:37.993Z,9.35
2018-08-16T04:28:41.310Z,9.83
2018-08-16T04:29:44.731Z,10.05
2018-08-16T04:30:48.050Z,9.28
2018-08-16T04:31:51.381Z,10.53
2018-08-16T04:32:54.711Z,9.63
2018-08-16T04:33:58.063Z,10.30
2018-08-16T04:35:01.428Z,9.63
2018-08-16T04:36:04.826Z,10.35
2018-08-16T04:37:08.198Z,11.60
2018-08-16T04:38:11.528Z,10.98
2018-08-16T04:39:14.875Z,10.85
2018-08-16T04:40:18.266Z,10.58
2018-08-16T04:41:21.591Z,11.18
2018-08-16T04:42:24.916Z,11.60
2018-08-16T04:43:28.270Z,10.45
2018-08-16T04:44:31.592Z,9.48
2018-08-16T04:45:34.924Z,10.45
2018-08-16T04:46:38.243Z,10.93
2018-08-16T04:47:41.594Z,10.75
2018-08-16T04:48:44.920Z,11.15
2018-08-16T04:49:48.254Z,11.33
2018-08-16T04:50:51.589Z,11.25
2018-08-16T04:51:54.933Z,10.90
2018-08-16T04:52:58.257Z,11.15
2018-08-16T04:54:01.585Z,12.15
2018-08-16T04:55:05.885Z,11.30
2018-08-16T04:56:15.926Z,11.53
2018-08-16T04:57:19.258Z,11.65
2018-08-16T04:58:22.566Z,11.28
2018-08-16T04:59:25.898Z,11.30
2018-08-16T05:00:29.235Z,10.93
2018-08-16T05:01:32.596Z,11.75
2018-08-16T05:02:36.138Z,11.08
2018-08-16T05:03:39.475Z,11.45
2018-08-16T05:04:42.823Z,10.30
2018-08-16T05:05:46.163Z,10.93
2018-08-16T05:06:49.518Z,11.15
2018-08-16T05:07:52.873Z,12.05
2018-08-16T05:08:56.188Z,11.97
2018-08-16T05:09:59.514Z,10.85
2018-08-16T05:11:02.908Z,10.78
2018-08-16T05:12:06.303Z,10.98
2018-08-16T05:13:09.638Z,12.13
2018-08-16T05:14:12.963Z,12.15
2018-08-16T05:15:22.851Z,11.20
2018-08-16T05:16:26.189Z,11.30
2018-08-16T05:17:29.575Z,11.48
2018-08-16T05:18:32.946Z,12.47
2018-08-16T05:19:36.291Z,12.37
2018-08-16T05:20:39.630Z,11.90
2018-08-16T05:21:42.962Z,11.88
2018-08-16T05:22:46.313Z,11.28
2018-08-16T05:23:49.675Z,10.85
2018-08-16T05:24:52.962Z,12.45
2018-08-16T05:25:56.298Z,11.20
2018-08-16T05:26:59.619Z,11.75
2018-08-16T05:28:02.995Z,11.48
2018-08-16T05:29:06.490Z,11.40
2018-08-16T05:30:11.652Z,11.68
2018-08-16T05:31:14.970Z,10.93
2018-08-16T05:32:18.304Z,11.55
2018-08-16T05:33:21.667Z,10.90
2018-08-16T05:34:24.996Z,10.90
2018-08-16T05:35:28.387Z,10.90
2018-08-16T05:36:31.763Z,11.10
2018-08-16T05:37:35.659Z,10.78
2018-08-16T05:38:39.010Z,11.80
2018-08-16T05:39:42.335Z,10.70
2018-08-16T05:40:45.674Z,10.63
2018-08-16T05:41:49.048Z,11.40
2018-08-16T05:42:52.498Z,11.08
2018-08-16T05:43:55.836Z,11.30
2018-08-16T05:44:59.159Z,11.12
2018-08-16T05:46:02.514Z,11.48
2018-08-16T05:47:06.354Z,11.10
2018-08-16T05:48:09.720Z,11.65
2018-08-16T05:49:13.103Z,11.55
2018-08-16T05:50:16.447Z,11.43
2018-08-16T05:51:19.818Z,10.88
2018-08-16T05:52:23.148Z,10.50
2018-08-16T05:53:26.496Z,12.10
2018-08-16T05:54:29.903Z,10.43
2018-08-16T05:55:33.235Z,11.22
2018-08-16T05:56:36.584Z,12.10
2018-08-16T05:57:40.354Z,11.00
2018-08-16T05:58:43.695Z,11.05
2018-08-16T05:59:47.053Z,11.85
2018-08-16T06:00:50.405Z,11.53
2018-08-16T06:01:53.759Z,11.25
2018-08-16T06:02:57.135Z,11.45
2018-08-16T06:04:00.496Z,11.50
2018-08-16T06:05:06.879Z,11.00
2018-08-16T06:06:10.209Z,12.93
2018-08-16T06:07:13.639Z,10.82
2018-08-16T06:08:17.001Z,11.57
2018-08-16T06:09:20.349Z,10.55
2018-08-16T06:10:23.688Z,11.03
2018-08-16T06:11:27.148Z,12.18
2018-08-16T06:12:30.507Z,11.97
2018-08-16T06:13:33.923Z,12.13
2018-08-16T06:14:37.264Z,10.70
2018-08-16T06:15:40.662Z,11.63
2018-08-16T06:16:44.029Z,10.65
2018-08-16T06:17:47.630Z,11.95
2018-08-16T06:18:50.963Z,12.47
2018-08-16T06:19:54.322Z,14.00
2018-08-16T06:20:57.648Z,12.37
2018-08-16T06:22:01.044Z,12.93
2018-08-16T06:23:04.375Z,12.88
2018-08-16T06:24:07.868Z,12.50
2018-08-16T06:25:12.952Z,12.70
2018-08-16T06:26:16.283Z,12.53
2018-08-16T06:27:19.643Z,12.35
2018-08-16T06:28:22.978Z,12.20
2018-08-16T06:29:26.348Z,12.33
2018-08-16T06:30:29.708Z,12.93
2018-08-16T06:31:33.074Z,12.33
2018-08-16T06:32:36.411Z,11.60
2018-08-16T06:33:39.753Z,12.05
2018-08-16T06:34:43.192Z,10.50
2018-08-16T06:35:46.580Z,11.48
2018-08-16T06:36:50.035Z,12.88
2018-08-16T06:37:53.380Z,12.88
2018-08-16T06:39:05.538Z,12.10
2018-08-16T06:40:13.047Z,11.40
2018-08-16T06:41:16.417Z,11.25
2018-08-16T06:42:19.798Z,12.00
2018-08-16T06:43:23.236Z,12.05
2018-08-16T06:44:26.595Z,12.23
2018-08-16T06:45:29.911Z,11.38
2018-08-16T06:46:33.282Z,12.05
2018-08-16T06:47:36.626Z,11.45
2018-08-16T06:48:39.948Z,11.00
2018-08-16T06:49:43.671Z,11.15
2018-08-16T06:50:47.063Z,11.90
2018-08-16T06:51:50.383Z,11.43
2018-08-16T06:52:53.763Z,11.15
2018-08-16T06:53:57.110Z,11.10
2018-08-16T06:55:00.991Z,11.48
2018-08-16T06:56:04.387Z,12.50
2018-08-16T06:57:07.786Z,9.93
2018-08-16T06:58:11.121Z,11.28
2018-08-16T06:59:14.551Z,11.50
2018-08-16T07:00:17.910Z,12.75
2018-08-16T07:01:21.247Z,11.22
2018-08-16T07:02:24.622Z,12.05
2018-08-16T07:03:28.014Z,12.15
2018-08-16T07:04:31.346Z,12.33
2018-08-16T07:05:34.669Z,12.20
2018-08-16T07:06:38.034Z,11.33
2018-08-16T07:07:41.386Z,12.33
2018-08-16T07:08:44.729Z,12.65
2018-08-16T07:09:48.114Z,13.90
2018-08-16T07:10:51.492Z,11.97
2018-08-16T07:11:54.860Z,12.90
2018-08-16T07:12:58.223Z,13.60
2018-08-16T07:14:01.609Z,12.20
2018-08-16T07:15:07.614Z,13.38
2018-08-16T07:16:11.040Z,11.75
2018-08-16T07:17:14.371Z,11.40
2018-08-16T07:18:17.748Z,11.63
2018-08-16T07:19:21.104Z,11.70
2018-08-16T07:20:24.475Z,12.23
2018-08-16T07:21:27.815Z,10.90
2018-08-16T07:22:31.160Z,12.00
2018-08-16T07:23:34.552Z,11.38
2018-08-16T07:24:37.871Z,10.82
2018-08-16T07:25:41.208Z,10.80
2018-08-16T07:26:44.565Z,10.53
2018-08-16T07:27:47.916Z,10.53
2018-08-16T07:28:51.292Z,10.88
2018-08-16T07:29:54.727Z,10.38
2018-08-16T07:30:58.044Z,10.03
2018-08-16T07:32:01.730Z,10.75
2018-08-16T07:33:05.078Z,10.98
2018-08-16T07:34:08.478Z,10.68
2018-08-16T07:35:11.824Z,11.03
2018-08-16T07:36:15.147Z,9.73
2018-08-16T07:37:18.567Z,10.18
2018-08-16T07:38:21.888Z,9.08
2018-08-16T07:39:25.272Z,9.90
2018-08-16T07:40:28.651Z,10.08
2018-08-16T07:41:32.035Z,9.83
2018-08-16T07:42:35.395Z,9.50
2018-08-16T07:43:38.809Z,9.60
2018-08-16T07:44:42.227Z,9.65
2018-08-16T07:45:45.722Z,8.40
2018-08-16T07:46:48.997Z,9.48
2018-08-16T07:47:52.370Z,10.00
2018-08-16T07:48:55.718Z,8.73
2018-08-16T07:49:59.055Z,8.93
2018-08-16T07:51:02.590Z,8.53
2018-08-16T07:52:08.972Z,7.50
2018-08-16T07:53:19.050Z,8.20
2018-08-16T07:54:22.450Z,9.15
2018-08-16T07:55:25.794Z,7.97
2018-08-16T07:56:29.153Z,8.78
2018-08-16T07:57:32.567Z,7.90
2018-08-16T07:58:35.973Z,7.75
2018-08-16T07:59:39.272Z,9.07
2018-08-16T08:00:42.617Z,8.28
2018-08-16T08:01:45.960Z,8.78
2018-08-16T08:02:49.343Z,7.90
2018-08-16T08:03:52.759Z,8.07
2018-08-16T08:04:56.092Z,7.70
2018-08-16T08:05:59.418Z,7.50
2018-08-16T08:07:02.795Z,7.93
2018-08-16T08:08:06.188Z,7.97
2018-08-16T08:09:10.483Z,7.30
2018-08-16T08:10:13.739Z,7.57
2018-08-16T08:11:17.067Z,7.60
2018-08-16T08:12:20.451Z,7.13
2018-08-16T08:13:23.826Z,7.70
2018-08-16T08:14:27.190Z,7.40
2018-08-16T08:15:30.593Z,7.80
2018-08-16T08:16:33.927Z,6.23
2018-08-16T08:17:37.633Z,7.10
2018-08-16T08:18:40.956Z,7.30
2018-08-16T08:19:44.312Z,6.73
2018-08-16T08:20:47.640Z,6.83
2018-08-16T08:21:51.006Z,7.60
2018-08-16T08:22:54.351Z,6.60
2018-08-16T08:23:57.692Z,6.77
2018-08-16T08:25:01.099Z,7.03
2018-08-16T08:26:04.459Z,6.43
2018-08-16T08:27:07.807Z,6.93
2018-08-16T08:28:11.143Z,6.40
2018-08-16T08:29:14.480Z,7.10
2018-08-16T08:30:17.867Z,6.70
2018-08-16T08:31:21.235Z,7.23
2018-08-16T08:32:24.566Z,6.67
2018-08-16T08:33:27.890Z,6.30
2018-08-16T08:34:31.236Z,7.00
2018-08-16T08:35:34.632Z,7.03
2018-08-16T08:36:49.304Z,7.30
2018-08-16T08:38:14.479Z,6.87
2018-08-16T08:39:17.851Z,6.20
2018-08-16T08:40:21.206Z,6.50
2018-08-16T08:41:24.594Z,6.90
2018-08-16T08:42:27.910Z,7.33
2018-08-16T08:43:42.675Z,6.53
2018-08-16T08:44:46.005Z,6.90
2018-08-16T08:45:49.403Z,6.90
2018-08-16T08:46:53.264Z,5.87
2018-08-16T08:47:58.487Z,5.30
2018-08-16T08:49:01.871Z,5.70
2018-08-16T08:50:07.282Z,6.00
2018-08-16T08:51:10.655Z,5.93
2018-08-16T08:52:14.034Z,6.13
2018-08-16T08:54:34.189Z,7.13
2018-08-16T08:55:48.863Z,6.90
2018-08-16T08:57:03.854Z,6.60
2018-08-16T08:58:18.994Z,6.17
2018-08-16T08:59:23.681Z,5.63
2018-08-16T09:00:27.775Z,5.57
2018-08-16T09:01:31.744Z,5.03
2018-08-16T09:02:36.908Z,4.77
2018-08-16T09:03:41.065Z,5.43
2018-08-16T09:04:45.162Z,5.77
2018-08-16T09:05:49.617Z,4.70
2018-08-16T09:06:54.668Z,4.77
2018-08-16T09:08:00.719Z,4.90
2018-08-16T09:09:07.435Z,4.60
2018-08-16T09:11:20.525Z,5.30
2018-08-16T09:12:35.254Z,5.20
2018-08-16T09:13:50.755Z,5.30
2018-08-16T09:16:04.068Z,4.80
2018-08-16T09:17:14.057Z,4.93
2018-08-16T09:18:17.400Z,5.10
2018-08-16T09:19:20.788Z,4.60
2018-08-16T09:20:24.103Z,5.50
2018-08-16T09:21:28.028Z,4.47
2018-08-16T09:22:31.350Z,4.80
2018-08-16T09:23:34.840Z,4.60
2018-08-16T09:24:38.231Z,4.70
2018-08-16T09:25:41.539Z,4.77
2018-08-16T09:26:45.605Z,4.53
2018-08-16T09:27:48.923Z,4.60
2018-08-16T09:28:52.286Z,4.63
2018-08-16T09:30:16.082Z,5.10
2018-08-16T09:31:30.773Z,5.40
2018-08-16T09:32:45.345Z,4.73
2018-08-16T09:34:00.116Z,4.70
2018-08-16T09:35:03.507Z,4.70
2018-08-16T09:36:06.915Z,5.23
2018-08-16T09:37:12.832Z,5.07
2018-08-16T09:38:16.155Z,4.60
2018-08-16T09:39:19.537Z,4.43
2018-08-16T09:40:22.916Z,4.40
2018-08-16T09:41:26.705Z,4.53
2018-08-16T09:42:30.077Z,4.53
2018-08-16T09:43:33.409Z,4.23
2018-08-16T09:44:36.726Z,4.90
2018-08-16T09:47:23.971Z,5.13
2018-08-16T09:48:38.618Z,4.30
2018-08-16T09:49:43.927Z,4.50
2018-08-16T09:50:47.266Z,4.30
2018-08-16T09:51:50.625Z,4.60
2018-08-16T09:52:53.989Z,4.60
2018-08-16T09:53:57.357Z,4.30
2018-08-16T09:55:00.700Z,4.20
2018-08-16T09:56:04.027Z,5.00
2018-08-16T09:57:08.651Z,4.40
2018-08-16T09:58:11.981Z,3.80
2018-08-16T09:59:15.879Z,3.93
2018-08-16T10:00:23.439Z,4.07
2018-08-16T10:01:26.781Z,4.70
2018-08-16T10:02:30.142Z,3.70
2018-08-16T10:03:33.474Z,5.10
2018-08-16T10:04:36.860Z,4.50
2018-08-16T10:05:40.179Z,5.43
2018-08-16T10:06:43.943Z,4.77
2018-08-16T10:07:47.255Z,4.57
2018-08-16T10:08:50.657Z,4.70
2018-08-16T10:09:54.053Z,4.70
2018-08-16T10:10:57.367Z,4.20
2018-08-16T10:12:01.805Z,3.93
2018-08-16T10:13:05.150Z,4.43
2018-08-16T10:14:08.499Z,5.17
2018-08-16T10:15:11.846Z,5.00
2018-08-16T10:16:15.172Z,4.73
2018-08-16T10:17:18.482Z,3.97
2018-08-16T10:18:21.810Z,4.57
2018-08-16T10:19:25.801Z,4.10
2018-08-16T10:20:29.181Z,4.17
2018-08-16T10:21:35.406Z,3.93
2018-08-16T10:22:38.763Z,3.50
2018-08-16T10:23:42.083Z,3.80
2018-08-16T10:24:45.414Z,4.27
2018-08-16T10:25:48.778Z,4.30
2018-08-16T10:26:52.193Z,4.80
2018-08-16T10:27:55.579Z,4.50
2018-08-16T10:28:58.932Z,3.80
2018-08-16T10:30:02.255Z,3.97
2018-08-16T10:31:05.595Z,3.60
2018-08-16T10:32:08.913Z,4.30
2018-08-16T10:33:12.265Z,3.70
2018-08-16T10:34:15.584Z,3.70
2018-08-16T10:35:18.975Z,3.53
2018-08-16T10:36:22.307Z,4.40
2018-08-16T10:37:25.615Z,4.50
2018-08-16T10:38:28.948Z,3.93
2018-08-16T10:39:32.325Z,4.10
2018-08-16T10:40:35.695Z,4.07
2018-08-16T10:41:39.047Z,4.23
2018-08-16T10:42:42.426Z,4.17
2018-08-16T10:43:45.790Z,4.03
2018-08-16T10:44:49.127Z,3.93
2018-08-16T10:45:52.423Z,4.40
2018-08-16T10:46:55.735Z,3.47
2018-08-16T10:47:59.052Z,3.93
2018-08-16T10:49:02.422Z,4.10
2018-08-16T10:50:06.298Z,3.90
2018-08-16T10:51:09.633Z,3.50
2018-08-16T10:52:12.957Z,3.83
2018-08-16T10:53:16.339Z,4.20
2018-08-16T10:54:19.719Z,4.47
2018-08-16T10:55:23.031Z,4.20
2018-08-16T10:56:26.450Z,4.17
2018-08-16T10:57:29.776Z,3.90
2018-08-16T10:58:33.130Z,4.40
2018-08-16T10:59:36.534Z,4.10
2018-08-16T11:00:39.932Z,4.20
2018-08-16T11:01:43.314Z,3.83
2018-08-16T11:02:46.652Z,3.80
2018-08-16T11:03:50.025Z,4.30
2018-08-16T11:04:53.392Z,4.03
2018-08-16T11:05:56.729Z,4.10
2018-08-16T11:07:00.088Z,4.70
2018-08-16T11:08:03.416Z,4.03
2018-08-16T11:09:08.751Z,4.00
2018-08-16T11:10:12.128Z,3.60
2018-08-16T11:11:15.464Z,3.63
2018-08-16T11:12:18.799Z,3.70
2018-08-16T11:13:22.582Z,4.07
2018-08-16T11:14:25.900Z,4.10
2018-08-16T11:15:29.248Z,3.70
2018-08-16T11:16:32.564Z,3.63
2018-08-16T11:17:35.895Z,3.57
2018-08-16T11:18:39.203Z,4.27
2018-08-16T11:19:42.544Z,4.77
2018-08-16T11:20:45.902Z,3.63
2018-08-16T11:21:49.272Z,3.63
2018-08-16T11:22:52.788Z,4.30
2018-08-16T11:23:56.132Z,3.80
2018-08-16T11:25:02.466Z,4.07
2018-08-16T11:26:05.823Z,4.20
2018-08-16T11:27:09.131Z,4.03
2018-08-16T11:28:12.447Z,4.33
2018-08-16T11:29:15.815Z,3.97
2018-08-16T11:30:19.371Z,4.10
2018-08-16T11:31:22.682Z,3.87
2018-08-16T11:32:26.031Z,3.87
2018-08-16T11:33:29.399Z,3.67
2018-08-16T11:34:32.721Z,3.63
2018-08-16T11:35:36.093Z,3.90
2018-08-16T11:36:39.417Z,3.63
2018-08-16T11:37:42.790Z,3.50
2018-08-16T11:38:46.111Z,3.80
2018-08-16T11:39:49.479Z,3.70
2018-08-16T11:40:52.888Z,3.83
2018-08-16T11:41:56.216Z,3.97
2018-08-16T11:42:59.540Z,4.00
2018-08-16T11:44:02.873Z,4.07
2018-08-16T11:45:06.719Z,4.03
2018-08-16T11:46:10.073Z,4.00
2018-08-16T11:47:13.396Z,5.30
2018-08-16T11:48:16.707Z,3.80
2018-08-16T11:49:20.022Z,4.00
2018-08-16T11:50:23.376Z,3.63
2018-08-16T11:51:26.787Z,3.57
2018-08-16T11:52:30.144Z,3.80
2018-08-16T11:53:33.466Z,4.00
2018-08-16T11:54:36.782Z,3.73
2018-08-16T11:55:40.157Z,3.57
2018-08-16T11:56:43.540Z,3.60
2018-08-16T11:57:46.854Z,3.60
2018-08-16T11:58:50.228Z,3.67
2018-08-16T11:59:53.544Z,3.87
2018-08-16T12:00:56.877Z,3.50
2018-08-16T12:02:00.251Z,3.70
2018-08-16T12:03:03.624Z,3.00
2018-08-16T12:04:06.971Z,3.60
2018-08-16T12:05:10.299Z,4.03
2018-08-16T12:06:13.643Z,3.20
2018-08-16T12:07:17.348Z,3.77
2018-08-16T12:08:20.727Z,3.70
2018-08-16T12:09:24.051Z,3.70
2018-08-16T12:10:27.413Z,3.73
2018-08-16T12:11:30.726Z,3.93
2018-08-16T12:12:34.080Z,3.43
2018-08-16T12:13:37.391Z,4.20
2018-08-16T12:14:40.724Z,3.80
2018-08-16T12:15:44.066Z,3.50
2018-08-16T12:16:47.382Z,2.93
2018-08-16T12:17:50.745Z,3.67
2018-08-16T12:18:54.091Z,3.40
2018-08-16T12:19:57.414Z,3.93
2018-08-16T12:21:00.731Z,3.80
2018-08-16T12:22:04.063Z,3.70
2018-08-16T12:23:07.428Z,3.50
2018-08-16T12:24:10.774Z,4.00
2018-08-16T12:25:14.116Z,4.17
2018-08-16T12:26:17.444Z,3.60
2018-08-16T12:27:20.771Z,3.80
2018-08-16T12:28:24.125Z,3.33
2018-08-16T12:29:27.443Z,3.43
2018-08-16T12:30:30.782Z,3.77
2018-08-16T12:31:34.144Z,3.70
2018-08-16T12:32:37.653Z,3.40
2018-08-16T12:33:40.959Z,3.67
2018-08-16T12:34:44.357Z,3.40
2018-08-16T12:35:47.659Z,3.50
2018-08-16T12:36:51.015Z,3.30
2018-08-16T12:37:54.388Z,3.27
2018-08-16T12:38:58.076Z,3.20
2018-08-16T12:40:01.431Z,3.33
2018-08-16T12:41:05.121Z,3.37
2018-08-16T12:42:08.536Z,3.60
2018-08-16T12:43:11.872Z,3.00
2018-08-16T12:44:15.187Z,3.50
2018-08-16T12:45:18.545Z,3.23
2018-08-16T12:46:21.901Z,3.30
2018-08-16T12:47:25.346Z,3.03
2018-08-16T12:48:28.653Z,3.13
2018-08-16T12:49:31.975Z,3.00
2018-08-16T12:50:35.288Z,3.23
2018-08-16T12:51:38.640Z,3.00
2018-08-16T12:52:42.022Z,3.23
2018-08-16T12:53:45.394Z,2.90
2018-08-16T12:54:48.740Z,3.33
2018-08-16T12:55:52.055Z,3.40
2018-08-16T12:56:55.415Z,3.20
2018-08-16T12:57:58.779Z,3.40
2018-08-16T12:59:02.095Z,3.43
2018-08-16T13:00:08.759Z,3.10
2018-08-16T13:01:12.079Z,2.70
2018-08-16T13:02:15.455Z,3.30
2018-08-16T13:03:18.783Z,3.00
2018-08-16T13:04:22.105Z,2.97
2018-08-16T13:05:25.458Z,2.90
2018-08-16T13:06:28.792Z,2.93
2018-08-16T13:07:32.172Z,3.43
2018-08-16T13:08:35.555Z,2.57
2018-08-16T13:09:38.882Z,3.20
2018-08-16T13:10:42.239Z,3.10
2018-08-16T13:11:45.559Z,3.00
2018-08-16T13:12:48.941Z,3.13
2018-08-16T13:13:52.283Z,3.27
2018-08-16T13:14:55.613Z,3.40
2018-08-16T13:15:58.951Z,3.30
2018-08-16T13:17:02.277Z,3.30
2018-08-16T13:18:05.903Z,3.33
2018-08-16T13:19:09.236Z,3.00
2018-08-16T13:20:12.597Z,3.87
2018-08-16T13:21:15.914Z,3.30
2018-08-16T13:22:19.238Z,3.50
2018-08-16T13:23:22.631Z,2.50
2018-08-16T13:24:25.948Z,3.20
2018-08-16T13:25:29.271Z,3.17
2018-08-16T13:26:32.606Z,3.30
2018-08-16T13:27:36.248Z,3.03
2018-08-16T13:28:39.584Z,2.83
2018-08-16T13:29:42.924Z,3.10
2018-08-16T13:30:46.251Z,3.70
2018-08-16T13:31:49.588Z,3.53
2018-08-16T13:32:52.953Z,3.30
2018-08-16T13:33:56.314Z,3.50
2018-08-16T13:34:59.639Z,3.10
2018-08-16T13:36:03.002Z,3.00
2018-08-16T13:37:06.514Z,3.40
2018-08-16T13:38:09.838Z,3.20
2018-08-16T13:39:14.386Z,3.57
2018-08-16T13:40:17.725Z,3.00
2018-08-16T13:41:21.447Z,3.20
2018-08-16T13:42:24.468Z,3.90
2018-08-16T13:43:27.752Z,3.20
2018-08-16T13:44:31.108Z,3.23
2018-08-16T13:45:34.421Z,3.20
2018-08-16T13:46:37.735Z,2.93
2018-08-16T13:47:41.055Z,3.57
2018-08-16T13:48:44.422Z,3.23
2018-08-16T13:49:48.162Z,3.30
2018-08-16T13:50:51.486Z,3.10
2018-08-16T13:51:54.823Z,3.10
2018-08-16T13:52:58.206Z,3.17
2018-08-16T13:54:01.519Z,3.00
2018-08-16T13:55:05.072Z,3.00
2018-08-16T13:56:08.299Z,3.40
2018-08-16T13:57:11.667Z,3.50
2018-08-16T13:58:15.035Z,3.30
2018-08-16T13:59:18.356Z,3.20
2018-08-16T14:00:21.725Z,3.10
2018-08-16T14:01:25.084Z,3.43
2018-08-16T14:02:28.399Z,2.90
2018-08-16T14:03:32.091Z,3.53
2018-08-16T14:04:35.435Z,3.30
2018-08-16T14:05:38.835Z,3.27
2018-08-16T14:06:42.172Z,3.20